createdAt,value
2017-12-10T00:00:41.900Z,0.70
2017-12-10T00:03:10.114Z,2.70
2017-12-10T00:05:37.551Z,2.70
2017-12-10T00:08:05.026Z,2.70
2017-12-10T00:10:32.465Z,2.70
2017-12-10T00:12:59.918Z,2.80
2017-12-10T00:15:27.354Z,2.70
2017-12-10T00:17:54.811Z,2.80
2017-12-10T00:20:22.310Z,2.70
2017-12-10T00:22:49.748Z,2.70
2017-12-10T00:25:17.214Z,2.80
2017-12-10T00:27:44.674Z,2.80
2017-12-10T00:30:12.139Z,2.80
2017-12-10T00:32:39.670Z,2.70
2017-12-10T00:35:07.099Z,2.70
2017-12-10T00:37:35.298Z,2.70
2017-12-10T00:40:02.782Z,2.70
2017-12-10T00:42:30.233Z,2.70
2017-12-10T00:44:57.673Z,2.70
2017-12-10T00:47:25.254Z,2.70
2017-12-10T00:49:52.710Z,2.70
2017-12-10T00:52:20.139Z,2.70
2017-12-10T00:54:47.582Z,2.70
2017-12-10T00:57:15.026Z,2.80
2017-12-10T00:59:43.324Z,2.80
2017-12-10T01:02:10.762Z,2.80
2017-12-10T01:04:38.974Z,2.70
2017-12-10T01:07:06.445Z,2.70
2017-12-10T01:09:33.876Z,2.80
2017-12-10T01:12:01.322Z,2.70
2017-12-10T01:14:28.798Z,2.70
2017-12-10T01:16:56.230Z,2.60
2017-12-10T01:19:23.716Z,2.70
2017-12-10T01:21:51.161Z,2.70
2017-12-10T01:24:18.626Z,2.70
2017-12-10T01:26:46.070Z,2.70
2017-12-10T01:29:13.512Z,2.70
2017-12-10T01:31:40.995Z,2.60
2017-12-10T01:34:08.455Z,2.70
2017-12-10T01:36:35.910Z,2.60
2017-12-10T01:39:03.367Z,2.60
2017-12-10T01:41:30.815Z,2.60
2017-12-10T01:43:58.255Z,2.60
2017-12-10T01:46:25.699Z,2.60
2017-12-10T01:48:53.194Z,2.60
2017-12-10T01:51:20.725Z,2.60
2017-12-10T01:53:48.143Z,2.60
2017-12-10T01:56:16.486Z,2.50
2017-12-10T01:58:43.923Z,2.50
2017-12-10T02:01:11.378Z,2.50
2017-12-10T02:03:38.854Z,2.50
2017-12-10T02:06:06.293Z,2.50
2017-12-10T02:08:33.736Z,2.50
2017-12-10T02:11:01.166Z,2.50
2017-12-10T02:13:29.399Z,2.50
2017-12-10T02:15:56.846Z,2.50
2017-12-10T02:18:24.302Z,2.60
2017-12-10T02:20:51.763Z,2.60
2017-12-10T02:23:19.206Z,2.50
2017-12-10T02:25:46.655Z,2.50
2017-12-10T02:28:14.111Z,2.50
2017-12-10T02:30:41.553Z,2.60
2017-12-10T02:33:09.138Z,2.70
2017-12-10T02:35:36.574Z,2.70
2017-12-10T02:38:04.022Z,2.70
2017-12-10T02:40:31.520Z,2.70
2017-12-10T02:42:58.959Z,2.60
2017-12-10T02:45:26.419Z,2.70
2017-12-10T02:47:53.874Z,2.70
2017-12-10T02:50:21.331Z,2.80
2017-12-10T02:52:48.778Z,2.80
2017-12-10T02:55:16.223Z,2.80
2017-12-10T02:57:43.657Z,2.70
2017-12-10T03:00:11.112Z,2.70
2017-12-10T03:02:39.315Z,2.50
2017-12-10T03:05:06.766Z,2.50
2017-12-10T03:07:34.242Z,2.50
2017-12-10T03:10:01.682Z,2.50
2017-12-10T03:12:29.115Z,2.60
2017-12-10T03:14:56.623Z,2.70
2017-12-10T03:17:24.069Z,2.60
2017-12-10T03:19:51.649Z,2.70
2017-12-10T03:22:19.083Z,2.70
2017-12-10T03:24:46.638Z,2.60
2017-12-10T03:27:14.080Z,2.60
2017-12-10T03:29:41.515Z,2.50
2017-12-10T03:32:09.013Z,2.40
2017-12-10T03:34:36.446Z,2.40
2017-12-10T03:37:04.004Z,2.50
2017-12-10T03:39:31.426Z,2.60
2017-12-10T03:41:59.630Z,2.50
2017-12-10T03:44:27.071Z,2.50
2017-12-10T03:46:54.574Z,2.50
2017-12-10T03:49:22.031Z,2.50
2017-12-10T03:51:49.481Z,2.60
2017-12-10T03:54:16.915Z,2.60
2017-12-10T03:56:44.368Z,2.60
2017-12-10T03:59:11.802Z,2.50
2017-12-10T04:01:40.003Z,2.40
2017-12-10T04:04:07.430Z,2.30
2017-12-10T04:06:35.630Z,2.40
2017-12-10T04:09:03.050Z,2.40
2017-12-10T04:11:30.678Z,2.50
2017-12-10T04:13:58.106Z,2.50
2017-12-10T04:16:25.538Z,2.60
2017-12-10T04:18:52.981Z,2.50
2017-12-10T04:21:21.174Z,2.50
2017-12-10T04:23:48.606Z,2.50
2017-12-10T04:26:16.814Z,2.60
2017-12-10T04:28:44.242Z,2.50
2017-12-10T04:31:11.679Z,2.60
2017-12-10T04:33:39.114Z,2.60
2017-12-10T04:36:06.664Z,2.60
2017-12-10T04:38:34.110Z,2.60
2017-12-10T04:41:01.568Z,2.70
2017-12-10T04:43:29.008Z,2.70
2017-12-10T04:45:56.450Z,2.60
2017-12-10T04:48:23.894Z,2.60
2017-12-10T04:50:51.332Z,2.60
2017-12-10T04:53:19.566Z,2.50
2017-12-10T04:55:46.998Z,2.50
2017-12-10T04:58:14.442Z,2.60
2017-12-10T05:00:41.865Z,2.60
2017-12-10T05:03:09.391Z,2.60
2017-12-10T05:05:36.853Z,2.60
2017-12-10T05:08:04.286Z,2.60
2017-12-10T05:10:31.714Z,2.60
2017-12-10T05:12:59.933Z,2.60
2017-12-10T05:15:27.362Z,2.50
2017-12-10T05:17:54.850Z,2.60
2017-12-10T05:20:22.308Z,2.60
2017-12-10T05:22:49.751Z,2.60
2017-12-10T05:25:17.187Z,2.60
2017-12-10T05:27:44.681Z,2.70
2017-12-10T05:30:12.114Z,2.60
2017-12-10T05:32:39.552Z,2.60
2017-12-10T05:35:07.051Z,2.80
2017-12-10T05:37:34.479Z,2.80
2017-12-10T05:40:01.908Z,2.80
2017-12-10T05:42:30.110Z,2.90
2017-12-10T05:44:57.554Z,2.90
2017-12-10T05:47:24.973Z,3.00
2017-12-10T05:49:53.218Z,2.90
2017-12-10T05:52:20.682Z,2.90
2017-12-10T05:54:48.138Z,2.90
2017-12-10T05:57:15.573Z,2.90
2017-12-10T05:59:43.042Z,2.90
2017-12-10T06:02:10.491Z,2.90
2017-12-10T06:04:37.943Z,2.90
2017-12-10T06:07:05.388Z,3.00
2017-12-10T06:09:32.848Z,2.90
2017-12-10T06:12:00.274Z,2.80
2017-12-10T06:14:28.486Z,2.80
2017-12-10T06:16:55.950Z,2.70
2017-12-10T06:19:23.398Z,2.80
2017-12-10T06:21:50.881Z,2.90
2017-12-10T06:24:18.426Z,2.80
2017-12-10T06:26:45.878Z,2.70
2017-12-10T06:29:13.347Z,2.60
2017-12-10T06:31:40.781Z,2.50
2017-12-10T06:34:08.246Z,2.50
2017-12-10T06:36:35.806Z,2.50
2017-12-10T06:39:03.239Z,2.50
2017-12-10T06:41:30.714Z,2.50
2017-12-10T06:43:58.176Z,2.50
2017-12-10T06:46:25.731Z,2.50
2017-12-10T06:48:53.164Z,2.50
2017-12-10T06:51:20.596Z,2.50
2017-12-10T06:53:48.795Z,2.50
2017-12-10T06:56:16.265Z,2.40
2017-12-10T06:58:43.747Z,2.50
2017-12-10T07:01:11.175Z,2.50
2017-12-10T07:03:38.602Z,2.50
2017-12-10T07:06:06.093Z,2.50
2017-12-10T07:08:33.527Z,2.50
2017-12-10T07:11:00.958Z,2.50
2017-12-10T07:13:29.194Z,2.50
2017-12-10T07:15:56.651Z,2.50
2017-12-10T07:18:24.090Z,2.60
2017-12-10T07:20:51.518Z,2.60
2017-12-10T07:23:18.954Z,2.60
2017-12-10T07:25:47.154Z,2.80
2017-12-10T07:28:14.638Z,2.70
2017-12-10T07:30:42.066Z,2.80
2017-12-10T07:33:09.587Z,2.90
2017-12-10T07:35:37.835Z,2.90
2017-12-10T07:38:05.275Z,2.90
2017-12-10T07:40:32.749Z,2.80
2017-12-10T07:43:00.183Z,2.80
2017-12-10T07:45:28.041Z,2.80
2017-12-10T07:47:55.470Z,2.90
2017-12-10T07:50:23.074Z,3.00
2017-12-10T07:52:50.506Z,3.00
2017-12-10T07:55:17.935Z,3.00
2017-12-10T07:57:46.134Z,2.90
2017-12-10T08:00:14.087Z,2.80
2017-12-10T08:02:41.591Z,2.90
2017-12-10T08:05:09.042Z,2.90
2017-12-10T08:07:36.491Z,2.90
2017-12-10T08:10:03.958Z,2.90
2017-12-10T08:12:31.409Z,2.90
2017-12-10T08:14:58.874Z,2.90
2017-12-10T08:17:26.305Z,3.00
2017-12-10T08:19:53.758Z,3.10
2017-12-10T08:22:21.199Z,3.10
2017-12-10T08:24:48.646Z,3.20
2017-12-10T08:27:16.150Z,3.20
2017-12-10T08:29:43.579Z,3.10
2017-12-10T08:32:11.039Z,3.10
2017-12-10T08:34:38.458Z,3.20
2017-12-10T08:37:06.698Z,3.30
2017-12-10T08:39:34.147Z,3.30
2017-12-10T08:42:01.597Z,3.20
2017-12-10T08:44:29.062Z,3.20
2017-12-10T08:46:56.518Z,3.20
2017-12-10T08:49:23.974Z,3.20
2017-12-10T08:51:51.433Z,3.20
2017-12-10T08:54:18.879Z,3.30
2017-12-10T08:56:46.345Z,3.30
2017-12-10T08:59:13.801Z,3.30
2017-12-10T09:01:41.237Z,3.40
2017-12-10T09:04:08.714Z,3.40
2017-12-10T09:06:36.171Z,3.50
2017-12-10T09:09:03.612Z,3.50
2017-12-10T09:11:31.058Z,3.40
2017-12-10T09:13:58.553Z,3.40
2017-12-10T09:16:25.990Z,3.50
2017-12-10T09:18:53.430Z,3.50
2017-12-10T09:21:20.913Z,3.50
2017-12-10T09:23:48.374Z,3.50
2017-12-10T09:26:15.825Z,3.50
2017-12-10T09:28:43.371Z,3.50
2017-12-10T09:31:10.841Z,3.50
2017-12-10T09:33:38.396Z,3.60
2017-12-10T09:36:05.946Z,3.60
2017-12-10T09:38:33.382Z,3.50
2017-12-10T09:41:00.831Z,3.60
2017-12-10T09:43:28.259Z,3.60
2017-12-10T09:45:55.695Z,3.50
2017-12-10T09:48:23.195Z,3.60
2017-12-10T09:50:50.570Z,3.50
2017-12-10T09:53:17.999Z,3.40
2017-12-10T09:55:45.438Z,3.50
2017-12-10T09:58:13.634Z,3.70
2017-12-10T10:00:41.239Z,3.60
2017-12-10T10:03:08.686Z,3.70
2017-12-10T10:05:36.126Z,3.80
2017-12-10T10:08:03.706Z,3.80
2017-12-10T10:10:31.158Z,3.80
2017-12-10T10:12:58.594Z,3.70
2017-12-10T10:15:26.043Z,3.70
2017-12-10T10:17:54.434Z,3.60
2017-12-10T10:20:22.019Z,3.60
2017-12-10T10:22:50.242Z,3.80
2017-12-10T10:25:17.674Z,3.80
2017-12-10T10:27:45.873Z,3.80
2017-12-10T10:30:13.302Z,3.70
2017-12-10T10:32:41.535Z,3.90
2017-12-10T10:35:08.995Z,3.90
2017-12-10T10:37:36.443Z,3.90
2017-12-10T10:40:03.871Z,3.80
2017-12-10T10:42:31.302Z,3.70
2017-12-10T10:44:59.511Z,3.60
2017-12-10T10:47:26.950Z,3.60
2017-12-10T10:49:54.442Z,3.80
2017-12-10T10:52:21.915Z,3.80
2017-12-10T10:54:49.466Z,3.90
2017-12-10T10:57:16.908Z,4.00
2017-12-10T10:59:44.338Z,4.00
2017-12-10T11:02:11.830Z,3.90
2017-12-10T11:04:39.263Z,4.00
2017-12-10T11:07:06.699Z,3.90
2017-12-10T11:09:34.146Z,4.00
2017-12-10T11:12:02.370Z,4.10
2017-12-10T11:14:29.826Z,4.00
2017-12-10T11:16:57.260Z,4.10
2017-12-10T11:19:24.690Z,4.10
2017-12-10T11:21:52.906Z,4.00
2017-12-10T11:24:20.334Z,4.00
2017-12-10T11:26:47.758Z,4.00
2017-12-10T11:29:15.954Z,3.90
2017-12-10T11:31:43.407Z,3.90
2017-12-10T11:34:11.630Z,3.90
2017-12-10T11:36:39.058Z,3.90
2017-12-10T11:39:06.535Z,3.90
2017-12-10T11:41:33.995Z,3.90
2017-12-10T11:44:01.431Z,4.00
2017-12-10T11:46:28.908Z,4.00
2017-12-10T11:48:57.094Z,3.90
2017-12-10T11:51:24.519Z,4.00
2017-12-10T11:53:51.995Z,4.00
2017-12-10T11:56:19.434Z,3.90
2017-12-10T11:58:46.862Z,3.90
2017-12-10T12:01:14.299Z,3.90
2017-12-10T12:03:41.922Z,3.90
2017-12-10T12:06:09.358Z,3.80
2017-12-10T12:08:36.790Z,3.90
2017-12-10T12:11:04.226Z,3.80
2017-12-10T12:13:32.426Z,3.80
2017-12-10T12:15:59.920Z,3.80
2017-12-10T12:18:27.376Z,3.70
2017-12-10T12:20:54.959Z,3.70
2017-12-10T12:23:22.402Z,3.70
2017-12-10T12:25:49.806Z,3.60
2017-12-10T12:28:17.311Z,3.60
2017-12-10T12:30:44.754Z,3.50
2017-12-10T12:33:12.220Z,3.50
2017-12-10T12:35:39.679Z,3.40
2017-12-10T12:38:07.139Z,3.30
2017-12-10T12:40:34.599Z,3.30
2017-12-10T12:43:02.854Z,3.30
2017-12-10T12:45:30.323Z,3.20
2017-12-10T12:47:57.768Z,3.20
2017-12-10T12:50:25.191Z,3.20
2017-12-10T12:52:52.693Z,3.20
2017-12-10T12:55:20.225Z,3.20
2017-12-10T12:57:47.634Z,3.10
2017-12-10T13:00:15.823Z,3.10
2017-12-10T13:02:43.262Z,3.00
2017-12-10T13:05:11.512Z,3.00
2017-12-10T13:07:38.943Z,2.90
2017-12-10T13:10:06.359Z,3.00
2017-12-10T13:12:34.559Z,2.80
2017-12-10T13:15:02.042Z,2.70
2017-12-10T13:17:29.471Z,2.80
2017-12-10T13:19:56.958Z,2.80
2017-12-10T13:22:24.530Z,3.00
2017-12-10T13:24:51.962Z,2.90
2017-12-10T13:27:19.430Z,2.80
2017-12-10T13:29:46.854Z,2.80
2017-12-10T13:32:14.360Z,2.70
2017-12-10T13:34:41.795Z,2.70
2017-12-10T13:37:09.245Z,2.70
2017-12-10T13:39:36.682Z,2.80
2017-12-10T13:42:04.115Z,2.90
2017-12-10T13:44:32.315Z,2.90
2017-12-10T13:46:59.754Z,2.90
2017-12-10T13:49:27.268Z,3.00
2017-12-10T13:51:54.705Z,3.00
2017-12-10T13:54:22.146Z,3.00
2017-12-10T13:56:49.722Z,3.00
2017-12-10T13:59:17.161Z,2.90
2017-12-10T14:01:44.630Z,2.80
2017-12-10T14:04:12.059Z,2.80
2017-12-10T14:06:39.546Z,2.80
2017-12-10T14:09:06.979Z,2.80
2017-12-10T14:11:34.406Z,2.80
2017-12-10T14:14:01.833Z,2.70
2017-12-10T14:16:29.258Z,2.60
2017-12-10T14:18:56.702Z,2.60
2017-12-10T14:21:24.183Z,2.60
2017-12-10T14:23:51.615Z,2.60
2017-12-10T14:26:19.044Z,2.50
2017-12-10T14:28:47.351Z,2.50
2017-12-10T14:31:14.827Z,2.50
2017-12-10T14:33:42.271Z,2.50
2017-12-10T14:36:09.694Z,2.50
2017-12-10T14:38:37.190Z,2.50
2017-12-10T14:41:04.622Z,2.60
2017-12-10T14:43:32.087Z,2.50
2017-12-10T14:45:59.741Z,2.50
2017-12-10T14:48:27.185Z,2.50
2017-12-10T14:50:54.763Z,2.60
2017-12-10T14:53:22.191Z,2.60
2017-12-10T14:55:49.698Z,2.60
2017-12-10T14:58:17.161Z,2.60
2017-12-10T15:00:44.585Z,2.60
2017-12-10T15:03:12.015Z,2.40
2017-12-10T15:05:39.467Z,2.40
2017-12-10T15:08:07.651Z,2.40
2017-12-10T15:10:35.842Z,2.40
2017-12-10T15:13:03.267Z,2.40
2017-12-10T15:15:31.465Z,2.40
2017-12-10T15:17:58.951Z,2.40
2017-12-10T15:20:26.388Z,2.40
2017-12-10T15:22:53.864Z,2.40
2017-12-10T15:25:21.319Z,2.40
2017-12-10T15:27:48.787Z,2.40
2017-12-10T15:30:16.198Z,2.40
2017-12-10T15:32:43.691Z,2.30
2017-12-10T15:35:11.150Z,2.30
2017-12-10T15:37:38.570Z,2.20
2017-12-10T15:40:06.457Z,2.20
2017-12-10T15:42:33.893Z,2.20
2017-12-10T15:45:01.311Z,2.10
2017-12-10T15:47:28.842Z,2.00
2017-12-10T15:49:56.288Z,2.00
2017-12-10T15:52:23.866Z,1.90
2017-12-10T15:54:51.329Z,1.90
2017-12-10T15:57:19.519Z,1.80
2017-12-10T15:59:47.710Z,1.70
2017-12-10T16:02:15.214Z,1.70
2017-12-10T16:04:42.643Z,1.70
2017-12-10T16:07:10.129Z,1.60
2017-12-10T16:09:37.587Z,1.60
2017-12-10T16:12:05.010Z,1.60
2017-12-10T16:14:32.434Z,1.60
2017-12-10T16:17:00.665Z,1.50
2017-12-10T16:19:28.103Z,1.50
2017-12-10T16:21:55.578Z,1.60
2017-12-10T16:24:23.045Z,1.50
2017-12-10T16:26:50.483Z,1.50
2017-12-10T16:29:17.903Z,1.50
2017-12-10T16:31:45.404Z,1.40
2017-12-10T16:34:12.881Z,1.40
2017-12-10T16:36:40.310Z,1.30
2017-12-10T16:39:07.795Z,1.30
2017-12-10T16:41:36.767Z,1.30
2017-12-10T16:44:04.214Z,1.30
2017-12-10T16:46:31.672Z,1.20
2017-12-10T16:48:59.098Z,1.10
2017-12-10T16:51:26.538Z,1.10
2017-12-10T16:53:54.758Z,1.10
2017-12-10T16:56:22.576Z,1.00
2017-12-10T16:58:50.786Z,1.10
2017-12-10T17:01:18.263Z,1.00
2017-12-10T17:03:46.029Z,1.10
2017-12-10T17:06:14.252Z,1.00
2017-12-10T17:08:41.700Z,1.00
2017-12-10T17:11:09.903Z,0.80
2017-12-10T17:13:37.374Z,0.80
2017-12-10T17:16:05.742Z,0.80
2017-12-10T17:18:33.188Z,0.80
2017-12-10T17:21:00.651Z,0.80
2017-12-10T17:23:28.084Z,0.80
2017-12-10T17:25:56.266Z,0.80
2017-12-10T17:28:23.707Z,0.70
2017-12-10T17:30:51.176Z,0.70
2017-12-10T17:33:19.368Z,0.60
2017-12-10T17:35:46.802Z,0.60
2017-12-10T17:38:15.028Z,0.70
2017-12-10T17:40:42.478Z,0.60
2017-12-10T17:43:09.936Z,0.70
2017-12-10T17:45:37.351Z,0.70
2017-12-10T17:48:04.819Z,0.70
2017-12-10T17:50:32.311Z,0.80
2017-12-10T17:52:59.759Z,0.80
2017-12-10T17:55:27.193Z,0.90
2017-12-10T17:57:54.781Z,0.80
2017-12-10T18:00:22.334Z,0.80
2017-12-10T18:02:49.778Z,0.80
2017-12-10T18:05:17.218Z,0.80
2017-12-10T18:07:44.701Z,0.70
2017-12-10T18:10:12.158Z,0.70
2017-12-10T18:12:39.598Z,0.70
2017-12-10T18:15:07.039Z,0.80
2017-12-10T18:17:34.514Z,0.80
2017-12-10T18:20:01.955Z,0.70
2017-12-10T18:22:29.386Z,0.70
2017-12-10T18:24:57.587Z,0.80
2017-12-10T18:27:25.068Z,0.70
2017-12-10T18:29:52.522Z,0.80
2017-12-10T18:32:19.998Z,0.80
2017-12-10T18:34:47.547Z,0.70
2017-12-10T18:37:14.976Z,0.70
2017-12-10T18:39:42.459Z,0.80
2017-12-10T18:42:09.902Z,0.70
2017-12-10T18:44:37.354Z,0.60
2017-12-10T18:47:04.790Z,0.60
2017-12-10T18:49:32.252Z,0.70
2017-12-10T18:51:59.661Z,0.70
2017-12-10T18:54:27.118Z,0.70
2017-12-10T18:56:54.638Z,0.70
2017-12-10T18:59:22.096Z,0.60
2017-12-10T19:01:49.554Z,0.60
2017-12-10T19:04:17.013Z,0.60
2017-12-10T19:06:44.487Z,0.60
2017-12-10T19:09:11.935Z,0.60
2017-12-10T19:11:39.391Z,0.50
2017-12-10T19:14:06.822Z,0.60
2017-12-10T19:16:34.263Z,0.60
2017-12-10T19:19:01.706Z,0.60
2017-12-10T19:21:29.894Z,0.60
2017-12-10T19:23:57.388Z,0.50
2017-12-10T19:26:24.832Z,0.60
2017-12-10T19:28:52.258Z,0.60
2017-12-10T19:31:19.694Z,0.50
2017-12-10T19:33:48.050Z,0.50
2017-12-10T19:36:15.458Z,0.50
2017-12-10T19:38:42.879Z,0.50
2017-12-10T19:41:11.079Z,0.50
2017-12-10T19:43:38.559Z,0.40
2017-12-10T19:46:06.022Z,0.50
2017-12-10T19:48:33.462Z,0.40
2017-12-10T19:51:00.890Z,0.40
2017-12-10T19:53:28.314Z,0.40
2017-12-10T19:55:55.742Z,0.50
2017-12-10T19:58:23.185Z,0.50
2017-12-10T20:00:50.602Z,0.50
2017-12-10T20:03:18.798Z,0.50
2017-12-10T20:05:46.225Z,0.40
2017-12-10T20:08:14.452Z,0.40
2017-12-10T20:10:41.915Z,0.40
2017-12-10T20:13:09.380Z,0.40
2017-12-10T20:15:36.964Z,0.40
2017-12-10T20:18:04.516Z,0.40
2017-12-10T20:20:31.963Z,0.40
2017-12-10T20:22:59.464Z,0.40
2017-12-10T20:25:26.924Z,0.40
2017-12-10T20:27:54.372Z,0.30
2017-12-10T20:30:21.790Z,0.40
2017-12-10T20:32:49.269Z,0.30
2017-12-10T20:35:16.687Z,0.30
2017-12-10T20:37:44.166Z,0.30
2017-12-10T20:40:11.634Z,0.20
2017-12-10T20:42:39.090Z,0.30
2017-12-10T20:45:06.642Z,0.20
2017-12-10T20:47:34.098Z,0.30
2017-12-10T20:50:01.532Z,0.30
2017-12-10T20:52:29.006Z,0.30
2017-12-10T20:54:56.463Z,0.30
2017-12-10T20:57:23.898Z,0.30
2017-12-10T20:59:51.326Z,0.30
2017-12-10T21:02:19.555Z,0.30
2017-12-10T21:04:47.006Z,0.20
2017-12-10T21:07:14.566Z,0.40
2017-12-10T21:09:42.061Z,0.40
2017-12-10T21:12:09.594Z,0.30
2017-12-10T21:14:37.034Z,0.20
2017-12-10T21:17:04.468Z,0.20
2017-12-10T21:19:31.900Z,0.20
2017-12-10T21:22:00.098Z,0.20
2017-12-10T21:24:27.550Z,0.20
2017-12-10T21:26:55.050Z,0.30
2017-12-10T21:29:22.595Z,0.30
2017-12-10T21:31:50.031Z,0.30
2017-12-10T21:34:17.510Z,0.20
2017-12-10T21:36:44.942Z,0.20
2017-12-10T21:39:12.419Z,0.20
2017-12-10T21:41:39.855Z,0.20
2017-12-10T21:44:07.343Z,0.20
2017-12-10T21:46:34.775Z,0.20
2017-12-10T21:49:02.224Z,0.20
2017-12-10T21:51:29.707Z,0.20
2017-12-10T21:53:57.155Z,0.30
2017-12-10T21:56:24.649Z,0.30
2017-12-10T21:58:52.172Z,0.30
2017-12-10T22:01:19.624Z,0.30
2017-12-10T22:03:47.055Z,0.20
2017-12-10T22:06:14.500Z,0.20
2017-12-10T22:08:42.775Z,0.20
2017-12-10T22:11:11.069Z,0.20
2017-12-10T22:13:39.325Z,0.20
2017-12-10T22:16:07.573Z,0.20
2017-12-10T22:18:35.033Z,0.20
2017-12-10T22:21:02.528Z,0.20
2017-12-10T22:23:30.780Z,0.20
2017-12-10T22:25:58.301Z,0.10
2017-12-10T22:28:25.739Z,0.10
2017-12-10T22:30:53.214Z,0.20
2017-12-10T22:33:20.658Z,0.10
2017-12-10T22:35:48.092Z,0.10
2017-12-10T22:38:15.530Z,0.20
2017-12-10T22:40:43.768Z,0.40
2017-12-10T22:43:11.215Z,0.30
2017-12-10T22:45:38.797Z,0.40
2017-12-10T22:48:06.238Z,0.40
2017-12-10T22:50:33.667Z,0.40
2017-12-10T22:53:01.115Z,0.40
2017-12-10T22:55:28.536Z,0.40
2017-12-10T22:57:55.970Z,0.40
2017-12-10T23:00:23.418Z,0.30
2017-12-10T23:02:50.952Z,0.30
2017-12-10T23:05:25.223Z,0.30
2017-12-10T23:07:52.747Z,0.30
2017-12-10T23:10:20.197Z,0.30
2017-12-10T23:12:47.647Z,0.40
2017-12-10T23:15:15.987Z,0.50
2017-12-10T23:17:43.507Z,0.50
2017-12-10T23:20:10.951Z,0.50
2017-12-10T23:22:38.384Z,0.50
2017-12-10T23:25:05.818Z,0.50
2017-12-10T23:27:33.282Z,0.50
2017-12-10T23:30:00.712Z,0.60
2017-12-10T23:32:28.225Z,0.60
2017-12-10T23:34:55.659Z,0.60
2017-12-10T23:37:23.143Z,0.60
2017-12-10T23:39:50.570Z,0.60
2017-12-10T23:42:18.006Z,0.60
2017-12-10T23:44:45.526Z,0.60
2017-12-10T23:47:12.950Z,0.60
2017-12-10T23:49:40.378Z,0.70
2017-12-10T23:52:07.881Z,0.80
2017-12-10T23:54:35.325Z,0.80
2017-12-10T23:57:02.750Z,0.80
2017-12-10T23:59:30.241Z,0.90
